sensor_id;sensor_type;location;lat;lon;timestamp;temperature;humidity
10980;DHT22;5543;51.734;8.744;2023-05-17T00:01:46;7.50;99.90
10980;DHT22;5543;51.734;8.744;2023-05-17T00:04:14;7.30;99.90
10980;DHT22;5543;51.734;8.744;2023-05-17T00:06:43;7.30;99.90
10980;DHT22;5543;51.734;8.744;2023-05-17T00:09:11;7.30;99.90
10980;DHT22;5543;51.734;8.744;2023-05-17T00:11:41;7.30;99.90
10980;DHT22;5543;51.734;8.744;2023-05-17T00:14:09;7.40;99.90
10980;DHT22;5543;51.734;8.744;2023-05-17T00:16:37;7.40;99.90
10980;DHT22;5543;51.734;8.744;2023-05-17T00:19:06;7.40;99.90
10980;DHT22;5543;51.734;8.744;2023-05-17T00:21:35;7.50;99.90
10980;DHT22;5543;51.734;8.744;2023-05-17T00:24:04;7.50;99.90
10980;DHT22;5543;51.734;8.744;2023-05-17T00:26:32;7.60;99.90
10980;DHT22;5543;51.734;8.744;2023-05-17T00:29:01;7.60;99.90
10980;DHT22;5543;51.734;8.744;2023-05-17T00:31:30;7.70;99.90
10980;DHT22;5543;51.734;8.744;2023-05-17T00:33:58;7.80;99.90
10980;DHT22;5543;51.734;8.744;2023-05-17T00:36:26;7.80;99.90
10980;DHT22;5543;51.734;8.744;2023-05-17T00:38:54;7.90;99.90
10980;DHT22;5543;51.734;8.744;2023-05-17T00:41:22;7.90;99.90
10980;DHT22;5543;51.734;8.744;2023-05-17T00:43:50;8.20;99.90
10980;DHT22;5543;51.734;8.744;2023-05-17T00:46:20;8.10;99.90
10980;DHT22;5543;51.734;8.744;2023-05-17T00:48:48;8.10;99.90
10980;DHT22;5543;51.734;8.744;2023-05-17T00:51:18;8.20;99.90
10980;DHT22;5543;51.734;8.744;2023-05-17T00:53:48;8.50;99.90
10980;DHT22;5543;51.734;8.744;2023-05-17T00:56:16;8.20;99.90
10980;DHT22;5543;51.734;8.744;2023-05-17T00:58:44;8.20;99.90
10980;DHT22;5543;51.734;8.744;2023-05-17T01:01:12;8.30;99.90
10980;DHT22;5543;51.734;8.744;2023-05-17T01:03:42;8.40;99.90
10980;DHT22;5543;51.734;8.744;2023-05-17T01:06:10;8.50;99.90
10980;DHT22;5543;51.734;8.744;2023-05-17T01:08:39;8.30;99.90
10980;DHT22;5543;51.734;8.744;2023-05-17T01:11:13;8.20;99.90
10980;DHT22;5543;51.734;8.744;2023-05-17T01:13:51;8.20;99.90
10980;DHT22;5543;51.734;8.744;2023-05-17T01:16:26;8.30;99.90
10980;DHT22;5543;51.734;8.744;2023-05-17T01:19:03;8.10;99.90
10980;DHT22;5543;51.734;8.744;2023-05-17T01:21:42;8.10;99.90
10980;DHT22;5543;51.734;8.744;2023-05-17T01:24:24;8.70;99.90
10980;DHT22;5543;51.734;8.744;2023-05-17T01:26:55;8.10;99.90
10980;DHT22;5543;51.734;8.744;2023-05-17T01:29:27;8.60;99.90
10980;DHT22;5543;51.734;8.744;2023-05-17T01:31:56;8.00;99.90
10980;DHT22;5543;51.734;8.744;2023-05-17T01:34:27;8.00;99.90
10980;DHT22;5543;51.734;8.744;2023-05-17T01:36:55;8.00;99.90
10980;DHT22;5543;51.734;8.744;2023-05-17T01:39:24;8.20;99.90
10980;DHT22;5543;51.734;8.744;2023-05-17T01:42:01;8.10;99.90
10980;DHT22;5543;51.734;8.744;2023-05-17T01:44:37;8.10;99.90
10980;DHT22;5543;51.734;8.744;2023-05-17T01:47:12;8.10;99.90
10980;DHT22;5543;51.734;8.744;2023-05-17T01:49:46;8.40;99.90
10980;DHT22;5543;51.734;8.744;2023-05-17T01:52:18;8.10;99.90
10980;DHT22;5543;51.734;8.744;2023-05-17T01:54:53;8.10;99.90
10980;DHT22;5543;51.734;8.744;2023-05-17T01:57:28;8.20;99.90
10980;DHT22;5543;51.734;8.744;2023-05-17T02:00:02;8.20;99.90
10980;DHT22;5543;51.734;8.744;2023-05-17T02:02:31;8.20;99.90
10980;DHT22;5543;51.734;8.744;2023-05-17T02:04:59;8.20;99.90
10980;DHT22;5543;51.734;8.744;2023-05-17T02:07:27;8.30;99.90
10980;DHT22;5543;51.734;8.744;2023-05-17T02:09:55;8.60;99.90
10980;DHT22;5543;51.734;8.744;2023-05-17T02:12:25;8.30;99.90
10980;DHT22;5543;51.734;8.744;2023-05-17T02:14:53;8.30;99.90
10980;DHT22;5543;51.734;8.744;2023-05-17T02:17:21;8.30;99.90
10980;DHT22;5543;51.734;8.744;2023-05-17T02:19:50;8.30;99.90
10980;DHT22;5543;51.734;8.744;2023-05-17T02:22:18;8.30;99.90
10980;DHT22;5543;51.734;8.744;2023-05-17T02:24:46;8.80;99.90
10980;DHT22;5543;51.734;8.744;2023-05-17T02:27:14;8.30;99.90
10980;DHT22;5543;51.734;8.744;2023-05-17T02:29:44;8.20;99.90
10980;DHT22;5543;51.734;8.744;2023-05-17T02:32:12;8.20;99.90
10980;DHT22;5543;51.734;8.744;2023-05-17T02:34:40;8.20;99.90
10980;DHT22;5543;51.734;8.744;2023-05-17T02:37:09;8.20;99.90
10980;DHT22;5543;51.734;8.744;2023-05-17T02:39:37;8.20;99.90
10980;DHT22;5543;51.734;8.744;2023-05-17T02:42:05;8.50;99.90
10980;DHT22;5543;51.734;8.744;2023-05-17T02:44:33;8.20;99.90
10980;DHT22;5543;51.734;8.744;2023-05-17T02:47:03;8.80;99.90
10980;DHT22;5543;51.734;8.744;2023-05-17T02:49:35;8.10;99.90
10980;DHT22;5543;51.734;8.744;2023-05-17T02:52:03;8.10;99.90
10980;DHT22;5543;51.734;8.744;2023-05-17T02:54:32;8.10;99.90
10980;DHT22;5543;51.734;8.744;2023-05-17T02:57:00;8.10;99.90
10980;DHT22;5543;51.734;8.744;2023-05-17T02:59:28;8.00;99.90
10980;DHT22;5543;51.734;8.744;2023-05-17T03:01:56;8.10;99.90
10980;DHT22;5543;51.734;8.744;2023-05-17T03:04:26;8.10;99.90
10980;DHT22;5543;51.734;8.744;2023-05-17T03:06:54;8.10;99.90
10980;DHT22;5543;51.734;8.744;2023-05-17T03:09:22;8.10;99.90
10980;DHT22;5543;51.734;8.744;2023-05-17T03:11:50;8.20;99.90
10980;DHT22;5543;51.734;8.744;2023-05-17T03:14:18;8.00;99.90
10980;DHT22;5543;51.734;8.744;2023-05-17T03:16:47;8.00;99.90
10980;DHT22;5543;51.734;8.744;2023-05-17T03:19:15;8.00;99.90
10980;DHT22;5543;51.734;8.744;2023-05-17T03:21:45;7.90;99.90
10980;DHT22;5543;51.734;8.744;2023-05-17T03:24:13;8.10;99.90
10980;DHT22;5543;51.734;8.744;2023-05-17T03:26:41;7.90;99.90
10980;DHT22;5543;51.734;8.744;2023-05-17T03:29:09;7.80;99.90
10980;DHT22;5543;51.734;8.744;2023-05-17T03:31:37;7.80;99.90
10980;DHT22;5543;51.734;8.744;2023-05-17T03:34:05;7.70;99.90
10980;DHT22;5543;51.734;8.744;2023-05-17T03:36:34;7.70;99.90
10980;DHT22;5543;51.734;8.744;2023-05-17T03:39:03;7.80;99.90
10980;DHT22;5543;51.734;8.744;2023-05-17T03:41:32;8.00;99.90
10980;DHT22;5543;51.734;8.744;2023-05-17T03:44:00;7.70;99.90
10980;DHT22;5543;51.734;8.744;2023-05-17T03:46:30;7.70;99.90
10980;DHT22;5543;51.734;8.744;2023-05-17T03:48:59;7.70;99.90
10980;DHT22;5543;51.734;8.744;2023-05-17T03:51:27;7.70;99.90
10980;DHT22;5543;51.734;8.744;2023-05-17T03:53:58;7.80;99.90
10980;DHT22;5543;51.734;8.744;2023-05-17T03:56:27;7.80;99.90
10980;DHT22;5543;51.734;8.744;2023-05-17T03:58:57;7.80;99.90
10980;DHT22;5543;51.734;8.744;2023-05-17T04:01:25;7.80;99.90
10980;DHT22;5543;51.734;8.744;2023-05-17T04:03:53;7.80;99.90
10980;DHT22;5543;51.734;8.744;2023-05-17T04:06:21;7.90;99.90
10980;DHT22;5543;51.734;8.744;2023-05-17T04:08:49;7.80;99.90
10980;DHT22;5543;51.734;8.744;2023-05-17T04:11:19;8.30;99.90
10980;DHT22;5543;51.734;8.744;2023-05-17T04:13:51;7.70;99.90
10980;DHT22;5543;51.734;8.744;2023-05-17T04:16:19;7.60;99.90
10980;DHT22;5543;51.734;8.744;2023-05-17T04:18:47;7.60;99.90
10980;DHT22;5543;51.734;8.744;2023-05-17T04:21:18;7.60;99.90
10980;DHT22;5543;51.734;8.744;2023-05-17T04:23:47;7.50;99.90
10980;DHT22;5543;51.734;8.744;2023-05-17T04:26:15;7.50;99.90
10980;DHT22;5543;51.734;8.744;2023-05-17T04:28:43;7.50;99.90
10980;DHT22;5543;51.734;8.744;2023-05-17T04:31:14;7.50;99.90
10980;DHT22;5543;51.734;8.744;2023-05-17T04:33:43;7.50;99.90
10980;DHT22;5543;51.734;8.744;2023-05-17T04:36:12;7.60;99.90
10980;DHT22;5543;51.734;8.744;2023-05-17T04:38:40;8.00;99.90
10980;DHT22;5543;51.734;8.744;2023-05-17T04:41:08;7.80;99.90
10980;DHT22;5543;51.734;8.744;2023-05-17T04:43:37;8.20;99.90
10980;DHT22;5543;51.734;8.744;2023-05-17T04:46:05;8.00;99.90
10980;DHT22;5543;51.734;8.744;2023-05-17T04:48:34;8.10;99.90
10980;DHT22;5543;51.734;8.744;2023-05-17T04:51:05;8.10;99.90
10980;DHT22;5543;51.734;8.744;2023-05-17T04:53:33;8.20;99.90
10980;DHT22;5543;51.734;8.744;2023-05-17T04:56:01;8.30;99.90
10980;DHT22;5543;51.734;8.744;2023-05-17T04:58:29;8.30;99.90
10980;DHT22;5543;51.734;8.744;2023-05-17T05:00:58;8.30;99.90
10980;DHT22;5543;51.734;8.744;2023-05-17T05:03:26;8.30;99.90
10980;DHT22;5543;51.734;8.744;2023-05-17T05:05:56;8.30;99.90
10980;DHT22;5543;51.734;8.744;2023-05-17T05:08:24;8.30;99.90
10980;DHT22;5543;51.734;8.744;2023-05-17T05:10:52;8.30;99.90
10980;DHT22;5543;51.734;8.744;2023-05-17T05:13:21;8.40;99.90
10980;DHT22;5543;51.734;8.744;2023-05-17T05:15:49;8.50;99.90
10980;DHT22;5543;51.734;8.744;2023-05-17T05:18:17;8.80;99.90
10980;DHT22;5543;51.734;8.744;2023-05-17T05:20:47;8.50;99.90
10980;DHT22;5543;51.734;8.744;2023-05-17T05:23:16;9.20;99.90
10980;DHT22;5543;51.734;8.744;2023-05-17T05:25:45;8.60;99.90
10980;DHT22;5543;51.734;8.744;2023-05-17T05:28:13;8.70;99.90
10980;DHT22;5543;51.734;8.744;2023-05-17T05:30:41;8.70;99.90
10980;DHT22;5543;51.734;8.744;2023-05-17T05:33:09;8.90;99.90
10980;DHT22;5543;51.734;8.744;2023-05-17T05:35:38;9.00;99.90
10980;DHT22;5543;51.734;8.744;2023-05-17T05:38:06;9.10;99.90
10980;DHT22;5543;51.734;8.744;2023-05-17T05:40:36;9.20;99.90
10980;DHT22;5543;51.734;8.744;2023-05-17T05:43:04;9.40;99.90
10980;DHT22;5543;51.734;8.744;2023-05-17T05:45:32;9.40;99.90
10980;DHT22;5543;51.734;8.744;2023-05-17T05:48:00;9.70;99.90
10980;DHT22;5543;51.734;8.744;2023-05-17T05:50:30;9.60;99.90
10980;DHT22;5543;51.734;8.744;2023-05-17T05:52:58;9.80;99.90
10980;DHT22;5543;51.734;8.744;2023-05-17T05:55:45;10.00;99.90
10980;DHT22;5543;51.734;8.744;2023-05-17T05:58:13;10.10;99.90
10980;DHT22;5543;51.734;8.744;2023-05-17T06:00:42;10.30;99.90
10980;DHT22;5543;51.734;8.744;2023-05-17T06:03:11;10.40;99.90
10980;DHT22;5543;51.734;8.744;2023-05-17T06:05:39;10.50;99.90
10980;DHT22;5543;51.734;8.744;2023-05-17T06:08:07;10.60;99.90
10980;DHT22;5543;51.734;8.744;2023-05-17T06:10:35;10.70;99.90
10980;DHT22;5543;51.734;8.744;2023-05-17T06:13:05;10.80;99.90
10980;DHT22;5543;51.734;8.744;2023-05-17T06:15:33;10.80;99.90
10980;DHT22;5543;51.734;8.744;2023-05-17T06:18:03;10.90;99.90
10980;DHT22;5543;51.734;8.744;2023-05-17T06:20:32;11.00;99.90
10980;DHT22;5543;51.734;8.744;2023-05-17T06:23:00;11.00;99.90
10980;DHT22;5543;51.734;8.744;2023-05-17T06:25:31;11.00;99.90
10980;DHT22;5543;51.734;8.744;2023-05-17T06:27:59;11.00;99.90
10980;DHT22;5543;51.734;8.744;2023-05-17T06:30:30;11.10;99.90
10980;DHT22;5543;51.734;8.744;2023-05-17T06:32:58;11.00;99.90
10980;DHT22;5543;51.734;8.744;2023-05-17T06:35:27;11.00;99.90
10980;DHT22;5543;51.734;8.744;2023-05-17T06:38:06;10.90;99.90
10980;DHT22;5543;51.734;8.744;2023-05-17T06:40:34;10.80;99.90
10980;DHT22;5543;51.734;8.744;2023-05-17T06:43:03;10.90;99.90
10980;DHT22;5543;51.734;8.744;2023-05-17T06:45:33;10.80;99.90
10980;DHT22;5543;51.734;8.744;2023-05-17T06:48:01;10.80;99.90
10980;DHT22;5543;51.734;8.744;2023-05-17T06:50:29;10.80;99.90
10980;DHT22;5543;51.734;8.744;2023-05-17T06:52:58;10.80;99.90
10980;DHT22;5543;51.734;8.744;2023-05-17T06:55:27;10.70;99.90
10980;DHT22;5543;51.734;8.744;2023-05-17T06:57:57;10.70;99.90
10980;DHT22;5543;51.734;8.744;2023-05-17T07:00:26;10.80;99.90
10980;DHT22;5543;51.734;8.744;2023-05-17T07:02:56;11.00;99.90
10980;DHT22;5543;51.734;8.744;2023-05-17T07:05:25;11.10;99.90
10980;DHT22;5543;51.734;8.744;2023-05-17T07:07:57;11.20;99.90
10980;DHT22;5543;51.734;8.744;2023-05-17T07:10:25;11.50;99.90
10980;DHT22;5543;51.734;8.744;2023-05-17T07:12:54;11.50;99.90
10980;DHT22;5543;51.734;8.744;2023-05-17T07:15:22;11.60;99.90
10980;DHT22;5543;51.734;8.744;2023-05-17T07:17:50;11.80;99.90
10980;DHT22;5543;51.734;8.744;2023-05-17T07:20:20;11.80;99.90
10980;DHT22;5543;51.734;8.744;2023-05-17T07:22:49;11.90;99.90
10980;DHT22;5543;51.734;8.744;2023-05-17T07:25:17;12.00;99.90
10980;DHT22;5543;51.734;8.744;2023-05-17T07:27:47;12.10;99.90
10980;DHT22;5543;51.734;8.744;2023-05-17T07:30:16;12.10;99.90
10980;DHT22;5543;51.734;8.744;2023-05-17T07:32:45;12.00;99.90
10980;DHT22;5543;51.734;8.744;2023-05-17T07:35:13;11.90;99.90
10980;DHT22;5543;51.734;8.744;2023-05-17T07:37:43;11.70;99.90
10980;DHT22;5543;51.734;8.744;2023-05-17T07:40:12;11.50;99.90
10980;DHT22;5543;51.734;8.744;2023-05-17T07:42:40;11.30;99.90
10980;DHT22;5543;51.734;8.744;2023-05-17T07:45:09;11.00;99.90
10980;DHT22;5543;51.734;8.744;2023-05-17T07:47:37;10.90;99.90
10980;DHT22;5543;51.734;8.744;2023-05-17T07:50:06;10.90;99.90
10980;DHT22;5543;51.734;8.744;2023-05-17T07:52:34;11.10;99.90
10980;DHT22;5543;51.734;8.744;2023-05-17T07:55:05;11.60;99.90
10980;DHT22;5543;51.734;8.744;2023-05-17T07:57:33;12.10;99.90
10980;DHT22;5543;51.734;8.744;2023-05-17T08:00:02;12.50;99.90
10980;DHT22;5543;51.734;8.744;2023-05-17T08:02:32;12.90;99.90
10980;DHT22;5543;51.734;8.744;2023-05-17T08:05:00;13.20;99.90
10980;DHT22;5543;51.734;8.744;2023-05-17T08:07:28;13.30;99.90
10980;DHT22;5543;51.734;8.744;2023-05-17T08:09:56;13.30;99.60
10980;DHT22;5543;51.734;8.744;2023-05-17T08:12:26;13.20;97.70
10980;DHT22;5543;51.734;8.744;2023-05-17T08:14:54;13.30;98.70
10980;DHT22;5543;51.734;8.744;2023-05-17T08:17:22;13.70;97.70
10980;DHT22;5543;51.734;8.744;2023-05-17T08:19:51;13.80;97.10
10980;DHT22;5543;51.734;8.744;2023-05-17T08:22:20;13.60;96.90
10980;DHT22;5543;51.734;8.744;2023-05-17T08:24:48;13.30;96.50
10980;DHT22;5543;51.734;8.744;2023-05-17T08:27:17;13.20;97.40
10980;DHT22;5543;51.734;8.744;2023-05-17T08:29:46;13.10;98.00
10980;DHT22;5543;51.734;8.744;2023-05-17T08:32:14;13.20;97.90
10980;DHT22;5543;51.734;8.744;2023-05-17T08:34:43;14.00;97.40
10980;DHT22;5543;51.734;8.744;2023-05-17T08:37:13;14.70;96.80
10980;DHT22;5543;51.734;8.744;2023-05-17T08:39:42;14.90;95.10
10980;DHT22;5543;51.734;8.744;2023-05-17T08:42:10;14.80;95.00
10980;DHT22;5543;51.734;8.744;2023-05-17T08:44:38;14.70;94.60
10980;DHT22;5543;51.734;8.744;2023-05-17T08:47:09;14.80;95.10
10980;DHT22;5543;51.734;8.744;2023-05-17T08:49:38;16.10;95.70
10980;DHT22;5543;51.734;8.744;2023-05-17T08:52:09;16.70;92.30
10980;DHT22;5543;51.734;8.744;2023-05-17T08:54:38;16.50;90.50
10980;DHT22;5543;51.734;8.744;2023-05-17T08:57:06;16.10;91.40
10980;DHT22;5543;51.734;8.744;2023-05-17T08:59:37;15.70;91.60
10980;DHT22;5543;51.734;8.744;2023-05-17T09:02:09;15.20;92.10
10980;DHT22;5543;51.734;8.744;2023-05-17T09:04:38;14.80;92.20
10980;DHT22;5543;51.734;8.744;2023-05-17T09:07:07;14.50;91.70
10980;DHT22;5543;51.734;8.744;2023-05-17T09:09:36;15.90;94.50
10980;DHT22;5543;51.734;8.744;2023-05-17T09:12:05;17.30;91.70
10980;DHT22;5543;51.734;8.744;2023-05-17T09:14:33;17.60;88.40
10980;DHT22;5543;51.734;8.744;2023-05-17T09:17:02;17.20;89.00
10980;DHT22;5543;51.734;8.744;2023-05-17T09:19:31;16.40;87.70
10980;DHT22;5543;51.734;8.744;2023-05-17T09:22:00;15.60;90.00
10980;DHT22;5543;51.734;8.744;2023-05-17T09:24:29;16.00;91.00
10980;DHT22;5543;51.734;8.744;2023-05-17T09:27:01;17.70;90.20
10980;DHT22;5543;51.734;8.744;2023-05-17T09:29:30;19.90;90.20
10980;DHT22;5543;51.734;8.744;2023-05-17T09:32:11;21.90;80.90
10980;DHT22;5543;51.734;8.744;2023-05-17T09:34:43;23.80;80.00
10980;DHT22;5543;51.734;8.744;2023-05-17T09:37:14;24.60;77.70
10980;DHT22;5543;51.734;8.744;2023-05-17T09:39:45;23.40;63.10
10980;DHT22;5543;51.734;8.744;2023-05-17T09:42:15;22.00;66.30
10980;DHT22;5543;51.734;8.744;2023-05-17T09:44:47;20.60;66.30
10980;DHT22;5543;51.734;8.744;2023-05-17T09:47:24;19.30;69.40
10980;DHT22;5543;51.734;8.744;2023-05-17T09:49:59;18.90;71.60
10980;DHT22;5543;51.734;8.744;2023-05-17T09:52:29;18.70;65.70
10980;DHT22;5543;51.734;8.744;2023-05-17T09:54:59;18.50;69.20
10980;DHT22;5543;51.734;8.744;2023-05-17T09:57:35;18.70;70.20
10980;DHT22;5543;51.734;8.744;2023-05-17T10:00:05;18.60;72.00
10980;DHT22;5543;51.734;8.744;2023-05-17T10:02:36;17.80;70.60
10980;DHT22;5543;51.734;8.744;2023-05-17T10:05:09;17.50;70.90
10980;DHT22;5543;51.734;8.744;2023-05-17T10:07:37;18.50;72.70
10980;DHT22;5543;51.734;8.744;2023-05-17T10:10:06;20.40;73.00
10980;DHT22;5543;51.734;8.744;2023-05-17T10:12:37;22.60;69.80
10980;DHT22;5543;51.734;8.744;2023-05-17T10:15:07;24.00;64.30
10980;DHT22;5543;51.734;8.744;2023-05-17T10:17:38;24.00;57.40
10980;DHT22;5543;51.734;8.744;2023-05-17T10:20:13;23.00;64.20
10980;DHT22;5543;51.734;8.744;2023-05-17T10:22:43;21.70;61.80
10980;DHT22;5543;51.734;8.744;2023-05-17T10:25:12;20.10;61.10
10980;DHT22;5543;51.734;8.744;2023-05-17T10:27:40;19.20;63.80
10980;DHT22;5543;51.734;8.744;2023-05-17T10:30:09;18.80;64.90
10980;DHT22;5543;51.734;8.744;2023-05-17T10:32:38;20.00;66.20
10980;DHT22;5543;51.734;8.744;2023-05-17T10:35:07;20.10;59.80
10980;DHT22;5543;51.734;8.744;2023-05-17T10:37:54;19.60;62.70
10980;DHT22;5543;51.734;8.744;2023-05-17T10:40:22;18.80;64.80
10980;DHT22;5543;51.734;8.744;2023-05-17T10:42:52;18.30;69.40
10980;DHT22;5543;51.734;8.744;2023-05-17T10:45:23;18.30;69.50
10980;DHT22;5543;51.734;8.744;2023-05-17T10:47:53;18.00;68.60
10980;DHT22;5543;51.734;8.744;2023-05-17T10:50:26;17.90;69.10
10980;DHT22;5543;51.734;8.744;2023-05-17T10:52:57;18.00;69.40
10980;DHT22;5543;51.734;8.744;2023-05-17T10:55:37;18.40;67.80
10980;DHT22;5543;51.734;8.744;2023-05-17T10:58:14;19.00;67.60
10980;DHT22;5543;51.734;8.744;2023-05-17T11:00:44;18.70;65.50
10980;DHT22;5543;51.734;8.744;2023-05-17T11:03:16;19.10;69.10
10980;DHT22;5543;51.734;8.744;2023-05-17T11:06:11;21.10;69.10
10980;DHT22;5543;51.734;8.744;2023-05-17T11:09:08;22.80;65.70
10980;DHT22;5543;51.734;8.744;2023-05-17T11:12:02;22.50;58.60
10980;DHT22;5543;51.734;8.744;2023-05-17T11:14:50;21.50;58.30
10980;DHT22;5543;51.734;8.744;2023-05-17T11:17:22;20.90;63.90
10980;DHT22;5543;51.734;8.744;2023-05-17T11:22:56;24.00;62.00
10980;DHT22;5543;51.734;8.744;2023-05-17T11:25:29;26.00;57.90
10980;DHT22;5543;51.734;8.744;2023-05-17T11:27:58;27.50;55.80
10980;DHT22;5543;51.734;8.744;2023-05-17T11:30:27;28.90;55.30
10980;DHT22;5543;51.734;8.744;2023-05-17T11:32:57;29.60;45.50
10980;DHT22;5543;51.734;8.744;2023-05-17T11:35:28;28.90;46.80
10980;DHT22;5543;51.734;8.744;2023-05-17T11:38:17;26.90;46.60
10980;DHT22;5543;51.734;8.744;2023-05-17T11:40:53;25.90;51.40
10980;DHT22;5543;51.734;8.744;2023-05-17T11:43:23;24.50;52.60
10980;DHT22;5543;51.734;8.744;2023-05-17T11:45:56;23.00;51.60
10980;DHT22;5543;51.734;8.744;2023-05-17T11:48:29;21.70;55.10
10980;DHT22;5543;51.734;8.744;2023-05-17T11:50:57;20.80;55.80
10980;DHT22;5543;51.734;8.744;2023-05-17T11:53:29;19.90;54.50
10980;DHT22;5543;51.734;8.744;2023-05-17T11:56:01;19.40;59.80
10980;DHT22;5543;51.734;8.744;2023-05-17T11:58:31;20.00;58.10
10980;DHT22;5543;51.734;8.744;2023-05-17T12:00:59;20.30;56.00
10980;DHT22;5543;51.734;8.744;2023-05-17T12:03:31;20.40;56.80
10980;DHT22;5543;51.734;8.744;2023-05-17T12:06:04;21.30;55.20
10980;DHT22;5543;51.734;8.744;2023-05-17T12:08:36;22.30;52.70
10980;DHT22;5543;51.734;8.744;2023-05-17T12:11:14;23.50;57.20
10980;DHT22;5543;51.734;8.744;2023-05-17T12:13:45;23.40;52.60
10980;DHT22;5543;51.734;8.744;2023-05-17T12:16:16;22.60;52.10
10980;DHT22;5543;51.734;8.744;2023-05-17T12:18:50;21.70;50.80
10980;DHT22;5543;51.734;8.744;2023-05-17T12:21:20;20.60;54.40
10980;DHT22;5543;51.734;8.744;2023-05-17T12:23:50;19.80;55.00
10980;DHT22;5543;51.734;8.744;2023-05-17T12:26:22;19.30;57.00
10980;DHT22;5543;51.734;8.744;2023-05-17T12:28:54;19.90;58.70
10980;DHT22;5543;51.734;8.744;2023-05-17T12:31:26;20.00;58.70
10980;DHT22;5543;51.734;8.744;2023-05-17T12:33:55;20.70;57.50
10980;DHT22;5543;51.734;8.744;2023-05-17T12:36:27;21.70;55.20
10980;DHT22;5543;51.734;8.744;2023-05-17T12:38:56;22.30;55.90
10980;DHT22;5543;51.734;8.744;2023-05-17T12:41:26;23.30;53.90
10980;DHT22;5543;51.734;8.744;2023-05-17T12:43:56;23.70;56.10
10980;DHT22;5543;51.734;8.744;2023-05-17T12:46:40;22.70;51.40
10980;DHT22;5543;51.734;8.744;2023-05-17T12:49:10;21.30;54.20
10980;DHT22;5543;51.734;8.744;2023-05-17T12:51:39;20.40;55.20
10980;DHT22;5543;51.734;8.744;2023-05-17T12:54:09;19.70;55.70
10980;DHT22;5543;51.734;8.744;2023-05-17T12:56:41;20.40;55.30
10980;DHT22;5543;51.734;8.744;2023-05-17T12:59:11;21.70;59.50
10980;DHT22;5543;51.734;8.744;2023-05-17T13:01:42;22.70;55.00
10980;DHT22;5543;51.734;8.744;2023-05-17T13:04:12;23.30;54.50
10980;DHT22;5543;51.734;8.744;2023-05-17T13:06:45;24.00;53.50
10980;DHT22;5543;51.734;8.744;2023-05-17T13:09:15;24.40;54.90
10980;DHT22;5543;51.734;8.744;2023-05-17T13:11:50;24.90;53.10
10980;DHT22;5543;51.734;8.744;2023-05-17T13:14:36;25.30;50.40
10980;DHT22;5543;51.734;8.744;2023-05-17T13:17:06;26.20;49.60
10980;DHT22;5543;51.734;8.744;2023-05-17T13:19:35;26.40;51.20
10980;DHT22;5543;51.734;8.744;2023-05-17T13:22:05;26.50;48.30
10980;DHT22;5543;51.734;8.744;2023-05-17T13:24:34;26.00;51.10
10980;DHT22;5543;51.734;8.744;2023-05-17T13:27:05;25.10;52.60
10980;DHT22;5543;51.734;8.744;2023-05-17T13:29:36;24.00;52.80
10980;DHT22;5543;51.734;8.744;2023-05-17T13:32:07;22.50;51.20
10980;DHT22;5543;51.734;8.744;2023-05-17T13:34:36;21.30;52.60
10980;DHT22;5543;51.734;8.744;2023-05-17T13:37:05;20.20;56.40
10980;DHT22;5543;51.734;8.744;2023-05-17T13:39:38;20.20;55.30
10980;DHT22;5543;51.734;8.744;2023-05-17T13:42:07;20.80;58.30
10980;DHT22;5543;51.734;8.744;2023-05-17T13:44:37;21.70;58.00
10980;DHT22;5543;51.734;8.744;2023-05-17T13:47:05;22.60;57.60
10980;DHT22;5543;51.734;8.744;2023-05-17T13:49:34;23.50;55.10
10980;DHT22;5543;51.734;8.744;2023-05-17T13:52:03;23.90;55.10
10980;DHT22;5543;51.734;8.744;2023-05-17T13:54:35;23.50;49.90
10980;DHT22;5543;51.734;8.744;2023-05-17T13:57:04;22.80;51.00
10980;DHT22;5543;51.734;8.744;2023-05-17T13:59:34;22.10;51.90
10980;DHT22;5543;51.734;8.744;2023-05-17T14:02:02;21.00;54.20
10980;DHT22;5543;51.734;8.744;2023-05-17T14:04:31;20.20;54.80
10980;DHT22;5543;51.734;8.744;2023-05-17T14:06:59;19.50;55.00
10980;DHT22;5543;51.734;8.744;2023-05-17T14:09:29;19.10;58.30
10980;DHT22;5543;51.734;8.744;2023-05-17T14:12:00;19.10;55.80
10980;DHT22;5543;51.734;8.744;2023-05-17T14:14:29;18.60;54.70
10980;DHT22;5543;51.734;8.744;2023-05-17T14:16:58;18.20;59.50
10980;DHT22;5543;51.734;8.744;2023-05-17T14:19:27;17.90;60.80
10980;DHT22;5543;51.734;8.744;2023-05-17T14:21:56;17.90;57.60
10980;DHT22;5543;51.734;8.744;2023-05-17T14:24:25;18.30;57.90
10980;DHT22;5543;51.734;8.744;2023-05-17T14:26:53;18.70;55.70
10980;DHT22;5543;51.734;8.744;2023-05-17T14:29:23;19.10;56.40
10980;DHT22;5543;51.734;8.744;2023-05-17T14:31:51;19.70;58.00
10980;DHT22;5543;51.734;8.744;2023-05-17T14:34:20;19.80;57.10
10980;DHT22;5543;51.734;8.744;2023-05-17T14:36:49;19.90;57.90
10980;DHT22;5543;51.734;8.744;2023-05-17T14:39:17;19.30;59.30
10980;DHT22;5543;51.734;8.744;2023-05-17T14:41:45;18.80;58.10
10980;DHT22;5543;51.734;8.744;2023-05-17T14:44:14;18.60;58.20
10980;DHT22;5543;51.734;8.744;2023-05-17T14:46:42;18.60;56.90
10980;DHT22;5543;51.734;8.744;2023-05-17T14:49:11;18.60;59.10
10980;DHT22;5543;51.734;8.744;2023-05-17T14:51:41;18.80;60.00
10980;DHT22;5543;51.734;8.744;2023-05-17T14:54:10;18.90;58.60
10980;DHT22;5543;51.734;8.744;2023-05-17T14:56:39;19.00;58.30
10980;DHT22;5543;51.734;8.744;2023-05-17T14:59:08;19.10;58.30
10980;DHT22;5543;51.734;8.744;2023-05-17T15:01:36;19.30;56.90
10980;DHT22;5543;51.734;8.744;2023-05-17T15:04:04;19.50;55.90
10980;DHT22;5543;51.734;8.744;2023-05-17T15:06:33;19.70;58.00
10980;DHT22;5543;51.734;8.744;2023-05-17T15:09:03;19.60;55.10
10980;DHT22;5543;51.734;8.744;2023-05-17T15:11:31;19.50;57.20
10980;DHT22;5543;51.734;8.744;2023-05-17T15:14:00;19.70;57.90
10980;DHT22;5543;51.734;8.744;2023-05-17T15:16:28;19.70;56.20
10980;DHT22;5543;51.734;8.744;2023-05-17T15:18:56;19.30;57.20
10980;DHT22;5543;51.734;8.744;2023-05-17T15:21:25;19.30;57.20
10980;DHT22;5543;51.734;8.744;2023-05-17T15:23:53;19.20;56.10
10980;DHT22;5543;51.734;8.744;2023-05-17T15:26:23;19.10;55.40
10980;DHT22;5543;51.734;8.744;2023-05-17T15:28:52;19.30;57.10
10980;DHT22;5543;51.734;8.744;2023-05-17T15:31:20;19.00;56.00
10980;DHT22;5543;51.734;8.744;2023-05-17T15:33:50;18.70;55.70
10980;DHT22;5543;51.734;8.744;2023-05-17T15:36:18;18.00;57.60
10980;DHT22;5543;51.734;8.744;2023-05-17T15:38:46;17.50;57.90
10980;DHT22;5543;51.734;8.744;2023-05-17T15:41:16;17.30;59.20
10980;DHT22;5543;51.734;8.744;2023-05-17T15:43:46;17.40;61.10
10980;DHT22;5543;51.734;8.744;2023-05-17T15:46:14;17.10;59.10
10980;DHT22;5543;51.734;8.744;2023-05-17T15:48:43;16.70;58.80
10980;DHT22;5543;51.734;8.744;2023-05-17T15:51:12;16.40;62.70
10980;DHT22;5543;51.734;8.744;2023-05-17T15:53:41;16.50;62.90
10980;DHT22;5543;51.734;8.744;2023-05-17T15:56:09;16.80;63.90
10980;DHT22;5543;51.734;8.744;2023-05-17T15:58:37;17.20;63.10
10980;DHT22;5543;51.734;8.744;2023-05-17T16:01:07;17.50;64.60
10980;DHT22;5543;51.734;8.744;2023-05-17T16:03:35;17.80;64.10
10980;DHT22;5543;51.734;8.744;2023-05-17T16:06:04;17.50;58.60
10980;DHT22;5543;51.734;8.744;2023-05-17T16:08:32;17.00;59.50
10980;DHT22;5543;51.734;8.744;2023-05-17T16:11:01;16.50;62.30
10980;DHT22;5543;51.734;8.744;2023-05-17T16:13:30;16.00;64.10